Time;durP1;ratioP1;P1;durP2;ratioP2;P2;SDS_P1;SDS_P2;PMS_P1;PMS_P2;Temp;Humidity;BMP_temperature;BMP_pressure;BME280_temperature;BME280_humidity;BME280_pressure;Samples;Min_cycle;Max_cycle;Signal;HPM_P1;HPM_P2
2020/12/06 06:01:28;;;;;;;39.80;17.03;;;1.10;97.30;;;;;;5646636;23;20658;-69
2020/12/06 06:03:58;;;;;;;31.93;17.40;;;1.10;97.30;;;;;;4933674;29;20996;-69
2020/12/06 06:06:30;;;;;;;31.17;16.73;;;1.10;97.30;;;;;;4935300;29;20412;-69
2020/12/06 06:09:00;;;;;;;34.67;16.20;;;1.10;97.30;;;;;;4935996;29;20423;-69
2020/12/06 06:11:27;;;;;;;40.27;17.30;;;1.10;97.30;;;;;;4925392;29;20441;-69
2020/12/06 06:14:03;;;;;;;40.87;17.23;;;1.10;97.30;;;;;;4916394;29;20781;-69
2020/12/06 06:16:31;;;;;;;36.43;16.53;;;1.00;97.30;;;;;;4915109;29;20848;-69
2020/12/06 06:19:00;;;;;;;40.83;18.63;;;1.10;97.30;;;;;;4915410;29;20420;-68
2020/12/06 06:21:33;;;;;;;33.03;16.63;;;1.10;97.30;;;;;;4916528;29;20479;-69
2020/12/06 06:24:12;;;;;;;40.50;18.03;;;1.20;97.30;;;;;;4916344;29;20431;-70
2020/12/06 06:26:46;;;;;;;39.63;17.57;;;1.20;97.30;;;;;;4914847;29;21005;-68
2020/12/06 06:29:17;;;;;;;35.87;16.20;;;1.20;97.30;;;;;;4916210;29;20412;-71
2020/12/06 06:31:48;;;;;;;45.87;18.50;;;1.30;97.30;;;;;;4916784;29;20443;-69
2020/12/06 06:34:28;;;;;;;44.67;17.83;;;1.30;97.30;;;;;;4916366;29;20487;-69
2020/12/06 06:36:54;;;;;;;38.87;18.40;;;1.30;97.30;;;;;;4918603;29;20519;-69
2020/12/06 06:39:23;;;;;;;37.50;17.37;;;1.30;97.30;;;;;;4919711;29;20788;-69
2020/12/06 06:42:01;;;;;;;42.80;18.13;;;1.30;97.30;;;;;;4914934;29;20831;-69
2020/12/06 06:44:31;;;;;;;41.63;18.60;;;1.30;97.30;;;;;;4921349;29;20429;-69
2020/12/06 06:47:06;;;;;;;39.00;18.10;;;1.40;97.30;;;;;;4918439;29;20436;-70
2020/12/06 06:49:48;;;;;;;49.23;19.03;;;1.40;97.30;;;;;;4919412;29;20435;-70
2020/12/06 06:52:16;;;;;;;36.73;16.90;;;1.50;97.30;;;;;;4920180;29;20459;-69
2020/12/06 06:54:48;;;;;;;43.33;18.67;;;1.50;97.30;;;;;;4918944;29;20433;-69
2020/12/06 06:57:20;;;;;;;43.03;19.60;;;1.50;97.30;;;;;;4920790;29;20921;-69
2020/12/06 06:59:50;;;;;;;46.20;19.20;;;1.40;97.30;;;;;;4919780;29;20512;-69
2020/12/06 07:02:40;;;;;;;44.30;18.97;;;1.30;97.30;;;;;;4918460;29;20496;-70
2020/12/06 07:05:23;;;;;;;44.07;19.60;;;1.30;97.30;;;;;;4919086;29;20523;-70
2020/12/06 07:07:51;;;;;;;42.83;19.37;;;1.40;97.30;;;;;;4920426;29;20432;-73
2020/12/06 07:10:18;;;;;;;45.20;19.47;;;1.40;97.30;;;;;;4919974;29;20437;-70
2020/12/06 07:12:56;;;;;;;38.23;18.47;;;1.50;97.30;;;;;;4918367;29;20440;-70
2020/12/06 07:15:24;;;;;;;41.80;19.57;;;1.50;97.30;;;;;;4917138;29;20440;-70
2020/12/06 07:17:52;;;;;;;47.67;20.40;;;1.50;97.30;;;;;;4917875;29;20512;-70
2020/12/06 07:20:19;;;;;;;38.03;18.53;;;1.50;97.30;;;;;;4918193;29;20552;-70
2020/12/06 07:22:46;;;;;;;46.93;19.10;;;1.50;97.30;;;;;;4919564;29;20456;-70
2020/12/06 07:25:13;;;;;;;46.57;19.70;;;1.50;97.30;;;;;;4916321;29;20421;-71
2020/12/06 07:27:40;;;;;;;48.97;20.17;;;1.50;97.30;;;;;;4919189;29;20412;-71
2020/12/06 07:30:11;;;;;;;42.73;18.93;;;1.50;97.30;;;;;;4919033;29;20769;-70
2020/12/06 07:32:38;;;;;;;40.03;18.00;;;1.50;97.30;;;;;;4918261;29;20450;-70
2020/12/06 07:35:05;;;;;;;45.40;20.80;;;1.60;97.30;;;;;;4918923;29;20926;-70
2020/12/06 07:37:31;;;;;;;47.70;20.90;;;1.60;97.30;;;;;;4918817;29;20480;-71
2020/12/06 07:39:57;;;;;;;41.70;19.07;;;1.60;97.30;;;;;;4917651;29;20420;-71
2020/12/06 07:42:24;;;;;;;45.30;19.47;;;1.60;97.30;;;;;;4917183;29;20247;-71
2020/12/06 07:44:55;;;;;;;44.27;19.17;;;1.70;97.30;;;;;;4917201;29;20464;-71
2020/12/06 07:47:22;;;;;;;38.87;18.60;;;1.70;97.30;;;;;;4917303;29;20472;-71
2020/12/06 07:49:49;;;;;;;40.67;19.50;;;1.70;97.30;;;;;;4917255;29;20421;-71
2020/12/06 07:52:19;;;;;;;39.63;19.73;;;1.70;97.30;;;;;;4918545;29;20524;-71
2020/12/06 07:54:59;;;;;;;47.00;19.57;;;1.80;97.30;;;;;;4916017;29;20424;-70
2020/12/06 07:57:32;;;;;;;41.73;19.20;;;1.80;97.30;;;;;;4918452;29;20413;-71
2020/12/06 07:59:59;;;;;;;38.90;19.17;;;1.90;97.30;;;;;;4920943;29;20451;-71
2020/12/06 08:02:31;;;;;;;42.23;19.80;;;1.90;97.30;;;;;;4924477;29;20465;-71
2020/12/06 08:04:57;;;;;;;46.80;20.60;;;2.00;97.30;;;;;;4924130;29;20993;-71
2020/12/06 08:07:34;;;;;;;43.27;19.60;;;2.10;97.30;;;;;;4926968;29;20419;-71
2020/12/06 08:10:02;;;;;;;44.27;19.80;;;2.20;97.30;;;;;;4925473;29;20400;-71
2020/12/06 08:12:31;;;;;;;38.40;19.17;;;2.20;97.30;;;;;;4926298;29;20483;-71
2020/12/06 08:15:04;;;;;;;47.37;21.20;;;2.30;97.30;;;;;;4917311;29;20427;-71
2020/12/06 08:17:47;;;;;;;40.70;19.60;;;2.40;97.30;;;;;;4914231;29;20575;-71
2020/12/06 08:20:15;;;;;;;47.10;20.97;;;2.50;97.30;;;;;;4916428;29;20784;-71
2020/12/06 08:22:54;;;;;;;45.47;20.50;;;2.60;97.30;;;;;;4916109;29;20514;-72
2020/12/06 08:25:25;;;;;;;36.67;18.30;;;2.60;97.30;;;;;;4914566;29;20409;-71
2020/12/06 08:27:53;;;;;;;50.80;21.27;;;2.70;97.30;;;;;;4915968;29;20413;-71
2020/12/06 08:30:21;;;;;;;42.37;20.47;;;2.80;97.30;;;;;;4917216;29;20471;-70
2020/12/06 08:33:04;;;;;;;43.47;21.10;;;2.90;97.30;;;;;;4916461;29;20484;-71
2020/12/06 08:35:36;;;;;;;40.40;19.40;;;3.00;97.30;;;;;;4915751;29;20429;-71
2020/12/06 08:38:18;;;;;;;44.80;20.23;;;3.00;97.30;;;;;;4916340;29;20429;-70
2020/12/06 08:41:01;;;;;;;43.37;19.17;;;3.10;97.30;;;;;;4917629;29;20420;-71
2020/12/06 08:43:51;;;;;;;42.77;21.00;;;3.20;97.30;;;;;;4917415;29;20405;-71
2020/12/06 08:46:22;;;;;;;48.40;19.70;;;3.20;97.30;;;;;;4916702;29;20435;-71
2020/12/06 08:48:50;;;;;;;42.27;18.67;;;3.40;97.30;;;;;;4916547;29;20785;-71
2020/12/06 08:51:30;;;;;;;40.93;18.93;;;3.40;97.30;;;;;;4917759;29;20495;-71
2020/12/06 08:53:57;;;;;;;52.37;18.63;;;3.40;97.30;;;;;;4917251;29;20400;-71
2020/12/06 08:56:35;;;;;;;43.67;20.27;;;3.50;97.30;;;;;;4916200;29;20428;-71
2020/12/06 08:59:13;;;;;;;43.83;20.80;;;3.50;97.30;;;;;;4917038;29;20423;-70
2020/12/06 09:01:53;;;;;;;41.30;20.37;;;3.60;97.30;;;;;;4916851;29;20474;-71
2020/12/06 09:04:20;;;;;;;49.40;21.60;;;3.60;97.30;;;;;;4915854;29;20452;-72
2020/12/06 09:06:47;;;;;;;45.43;21.60;;;3.70;97.30;;;;;;4916138;29;20495;-71
2020/12/06 09:09:13;;;;;;;43.80;19.80;;;3.70;97.30;;;;;;4917168;29;20420;-71
2020/12/06 09:11:39;;;;;;;44.03;21.13;;;3.80;97.30;;;;;;4916223;29;20511;-70
2020/12/06 09:14:05;;;;;;;44.30;20.40;;;3.90;97.30;;;;;;4915748;29;20223;-71
2020/12/06 09:16:31;;;;;;;44.23;20.40;;;4.00;97.30;;;;;;4915953;29;20184;-71
2020/12/06 09:18:57;;;;;;;44.23;20.00;;;4.10;97.30;;;;;;4915900;29;20427;-71
2020/12/06 09:21:23;;;;;;;46.33;20.50;;;4.10;97.30;;;;;;4917030;29;20355;-71
2020/12/06 09:23:49;;;;;;;44.17;20.70;;;4.10;97.30;;;;;;4916845;29;21005;-71
2020/12/06 09:26:15;;;;;;;43.00;22.03;;;4.20;97.30;;;;;;4916022;29;20181;-71
2020/12/06 09:28:41;;;;;;;45.80;20.43;;;4.20;97.30;;;;;;4915522;29;20812;-71
2020/12/06 09:31:07;;;;;;;44.43;21.13;;;4.20;97.30;;;;;;4915815;29;20437;-71
2020/12/06 09:33:33;;;;;;;41.80;20.33;;;4.20;97.30;;;;;;4917021;29;20420;-71
2020/12/06 09:35:59;;;;;;;49.20;22.07;;;4.30;97.30;;;;;;4917034;29;20592;-71
2020/12/06 09:38:25;;;;;;;41.50;21.03;;;4.30;97.30;;;;;;4915794;29;20208;-71
2020/12/06 09:40:51;;;;;;;47.30;21.70;;;4.40;97.30;;;;;;4917004;29;20487;-71
2020/12/06 09:43:17;;;;;;;40.87;20.20;;;4.40;97.30;;;;;;4915627;29;20947;-71
2020/12/06 09:45:43;;;;;;;49.20;22.07;;;4.50;97.30;;;;;;4915559;29;20193;-71
2020/12/06 09:48:09;;;;;;;54.13;23.67;;;4.50;97.30;;;;;;4917073;29;20191;-71
2020/12/06 09:50:35;;;;;;;48.07;22.43;;;4.60;97.30;;;;;;4915199;29;20204;-71
2020/12/06 09:53:01;;;;;;;51.60;22.63;;;4.60;97.30;;;;;;4915570;29;20794;-72
2020/12/06 09:55:27;;;;;;;45.50;21.00;;;4.60;97.30;;;;;;4915735;29;20424;-71
2020/12/06 09:57:53;;;;;;;46.70;20.50;;;4.60;97.30;;;;;;4917024;29;20520;-71
2020/12/06 10:00:19;;;;;;;46.33;22.23;;;4.70;97.30;;;;;;4916367;29;20646;-70
2020/12/06 10:02:45;;;;;;;40.70;20.73;;;4.70;97.30;;;;;;4915385;29;20212;-70
2020/12/06 10:05:11;;;;;;;43.83;22.87;;;4.70;97.30;;;;;;4915418;29;20268;-71
2020/12/06 10:07:37;;;;;;;46.53;20.23;;;4.80;97.30;;;;;;4915626;29;20421;-71
2020/12/06 10:10:07;;;;;;;39.10;19.67;;;4.80;97.30;;;;;;4915556;29;20420;-71
2020/12/06 10:12:33;;;;;;;47.30;23.03;;;4.90;97.30;;;;;;4915663;29;20451;-72
2020/12/06 10:14:59;;;;;;;46.40;21.33;;;4.90;97.30;;;;;;4915299;29;20420;-72
2020/12/06 10:17:25;;;;;;;45.80;23.23;;;4.90;97.30;;;;;;4915746;29;20209;-71
2020/12/06 10:19:51;;;;;;;48.23;23.50;;;5.00;97.30;;;;;;4920492;29;20599;-71
2020/12/06 10:22:16;;;;;;;46.00;20.73;;;5.00;97.30;;;;;;4920343;29;21027;-71
2020/12/06 10:24:42;;;;;;;45.30;20.73;;;5.00;97.30;;;;;;4919197;29;20173;-71
2020/12/06 10:27:08;;;;;;;49.83;22.50;;;5.10;97.30;;;;;;4919114;29;20184;-71
2020/12/06 10:29:33;;;;;;;39.73;21.03;;;5.10;97.30;;;;;;4919089;29;20201;-72
2020/12/06 10:32:00;;;;;;;40.70;21.03;;;5.10;97.30;;;;;;4918988;29;20196;-71
2020/12/06 10:34:26;;;;;;;42.30;20.93;;;5.20;97.30;;;;;;4918559;29;20184;-71
2020/12/06 10:36:54;;;;;;;36.50;20.13;;;5.20;97.30;;;;;;4920163;29;20420;-71
2020/12/06 10:39:21;;;;;;;40.20;21.17;;;5.20;97.30;;;;;;4917296;29;21577;-72
2020/12/06 10:41:51;;;;;;;37.33;20.20;;;5.20;97.30;;;;;;4918486;29;20456;-71
2020/12/06 10:44:20;;;;;;;45.47;20.70;;;5.20;97.30;;;;;;4918883;29;20981;-72
2020/12/06 10:46:46;;;;;;;47.70;22.40;;;5.30;97.30;;;;;;4919113;29;20416;-71
2020/12/06 10:49:13;;;;;;;43.97;19.83;;;5.40;97.30;;;;;;4918642;29;20455;-72
2020/12/06 10:51:40;;;;;;;43.80;22.40;;;5.50;97.30;;;;;;4918681;29;20436;-71
2020/12/06 10:54:08;;;;;;;44.80;19.87;;;5.60;97.30;;;;;;4919618;29;20772;-71
2020/12/06 10:56:33;;;;;;;43.47;21.20;;;5.60;97.30;;;;;;4918448;29;20448;-71
2020/12/06 10:58:59;;;;;;;40.80;20.80;;;5.70;97.30;;;;;;4919599;29;20425;-72
2020/12/06 11:01:30;;;;;;;45.80;21.53;;;5.70;97.30;;;;;;4917266;29;20260;-72
2020/12/06 11:03:56;;;;;;;40.53;19.90;;;5.80;97.30;;;;;;4919137;29;20655;-72
2020/12/06 11:06:25;;;;;;;40.80;20.10;;;5.80;97.30;;;;;;4918023;29;20421;-72
2020/12/06 11:08:51;;;;;;;40.60;19.93;;;5.90;97.30;;;;;;4918122;29;20425;-72
2020/12/06 11:11:19;;;;;;;41.50;20.00;;;6.00;97.30;;;;;;4917976;29;20440;-72
2020/12/06 11:13:45;;;;;;;38.03;20.23;;;6.10;97.30;;;;;;4917537;29;20745;-72
2020/12/06 11:16:15;;;;;;;37.47;19.20;;;6.10;97.30;;;;;;4918534;29;20443;-72
2020/12/06 11:18:41;;;;;;;40.97;20.50;;;6.20;97.30;;;;;;4917605;29;20184;-72
2020/12/06 11:21:07;;;;;;;39.17;20.37;;;6.20;97.30;;;;;;4918991;29;20432;-72
2020/12/06 11:23:32;;;;;;;38.87;20.23;;;6.30;97.30;;;;;;4917226;29;20216;-72
2020/12/06 11:25:58;;;;;;;41.57;19.63;;;6.30;97.30;;;;;;4918837;29;20173;-72
2020/12/06 11:28:24;;;;;;;38.13;19.47;;;6.40;97.30;;;;;;4917762;29;20304;-72
2020/12/06 11:30:49;;;;;;;40.70;19.87;;;6.40;97.30;;;;;;4917537;29;20642;-72
2020/12/06 11:33:15;;;;;;;38.23;19.30;;;6.50;97.30;;;;;;4918625;29;20267;-72
2020/12/06 11:35:42;;;;;;;37.27;19.50;;;6.40;97.30;;;;;;4917590;29;20188;-72
2020/12/06 11:38:08;;;;;;;40.77;20.50;;;6.50;97.30;;;;;;4917432;29;20184;-72
2020/12/06 11:40:33;;;;;;;44.10;20.97;;;6.50;97.30;;;;;;4916843;29;20892;-72
2020/12/06 11:42:59;;;;;;;41.20;20.57;;;6.50;97.30;;;;;;4918692;29;20295;-73
2020/12/06 11:45:25;;;;;;;46.80;22.47;;;6.50;97.30;;;;;;4917371;29;20192;-72
2020/12/06 11:47:52;;;;;;;38.13;19.87;;;6.60;97.30;;;;;;4917906;29;20181;-72
2020/12/06 11:50:18;;;;;;;44.33;22.60;;;6.60;97.30;;;;;;4917182;29;20654;-73
2020/12/06 11:52:44;;;;;;;39.47;21.20;;;6.60;97.30;;;;;;4917290;29;20416;-72
2020/12/06 11:55:11;;;;;;;43.97;20.73;;;6.60;97.30;;;;;;4918492;29;20168;-73
2020/12/06 11:57:38;;;;;;;41.87;22.03;;;6.60;97.30;;;;;;4901670;29;20433;-72
2020/12/06 12:00:08;;;;;;;37.27;20.20;;;6.60;97.30;;;;;;4917157;29;20499;-72
2020/12/06 12:02:34;;;;;;;38.13;20.00;;;6.50;97.30;;;;;;4916070;29;20474;-72
2020/12/06 12:05:00;;;;;;;43.13;22.13;;;6.60;97.30;;;;;;4916564;29;20427;-72
2020/12/06 12:07:26;;;;;;;39.70;20.20;;;6.60;97.30;;;;;;4916727;29;20413;-72
2020/12/06 12:09:52;;;;;;;42.87;21.87;;;6.70;97.30;;;;;;4920169;29;20789;-71
2020/12/06 12:12:18;;;;;;;38.33;20.90;;;6.80;97.30;;;;;;4921883;29;20451;-71
2020/12/06 12:14:44;;;;;;;45.53;22.07;;;6.90;97.30;;;;;;4925190;29;20416;-72
2020/12/06 12:17:11;;;;;;;42.33;21.13;;;7.00;97.30;;;;;;4924576;29;20423;-72
2020/12/06 12:19:37;;;;;;;36.33;20.60;;;7.10;97.30;;;;;;4927271;29;20550;-72
2020/12/06 12:22:03;;;;;;;43.60;21.90;;;7.10;97.30;;;;;;4921379;29;20552;-72
2020/12/06 12:24:28;;;;;;;40.30;20.07;;;7.20;97.30;;;;;;4916534;29;20840;-72
2020/12/06 12:26:59;;;;;;;38.30;19.60;;;7.10;97.30;;;;;;4916703;29;20432;-72
2020/12/06 12:29:25;;;;;;;37.90;20.50;;;7.10;97.30;;;;;;4916552;29;20169;-72
2020/12/06 12:31:51;;;;;;;42.80;21.10;;;7.10;97.30;;;;;;4917862;29;20487;-72
2020/12/06 12:34:17;;;;;;;41.23;20.40;;;7.00;97.30;;;;;;4916310;29;20532;-72
2020/12/06 12:36:44;;;;;;;40.10;20.73;;;7.10;97.30;;;;;;4917367;29;20421;-72
2020/12/06 12:39:11;;;;;;;48.23;22.50;;;7.10;97.30;;;;;;4915727;29;20440;-72
2020/12/06 12:41:38;;;;;;;47.03;23.03;;;7.20;97.30;;;;;;4915826;29;20468;-72
2020/12/06 12:44:05;;;;;;;44.57;22.00;;;7.30;97.30;;;;;;4916480;29;20464;-73
2020/12/06 12:46:32;;;;;;;39.30;20.93;;;7.20;97.30;;;;;;4918203;29;20511;-73
2020/12/06 12:48:59;;;;;;;40.77;21.67;;;7.20;97.30;;;;;;4918001;29;20423;-75
2020/12/06 12:51:26;;;;;;;36.27;21.13;;;7.20;97.30;;;;;;4917299;29;20503;-72
2020/12/06 12:53:53;;;;;;;39.20;20.73;;;7.10;97.30;;;;;;4915509;29;20417;-72
2020/12/06 12:56:19;;;;;;;42.40;21.80;;;7.00;97.30;;;;;;4913299;29;20425;-72
2020/12/06 12:58:45;;;;;;;40.97;22.57;;;7.00;97.30;;;;;;4915899;29;20412;-72
2020/12/06 13:01:11;;;;;;;39.73;21.53;;;7.00;97.30;;;;;;4916453;29;20448;-72
2020/12/06 13:03:37;;;;;;;41.10;20.43;;;6.90;97.30;;;;;;4915482;29;20189;-73
2020/12/06 13:06:12;;;;;;;45.20;22.80;;;6.90;97.30;;;;;;4915862;29;20259;-73
2020/12/06 13:08:38;;;;;;;46.07;21.60;;;6.80;97.30;;;;;;4912439;29;20456;-73
2020/12/06 13:11:04;;;;;;;42.80;21.53;;;6.80;97.30;;;;;;4917406;29;20440;-73
2020/12/06 13:13:30;;;;;;;45.20;22.37;;;6.80;97.30;;;;;;4916446;29;20192;-74
2020/12/06 13:15:59;;;;;;;41.80;22.17;;;6.80;97.30;;;;;;4915970;29;20526;-73
2020/12/06 13:18:25;;;;;;;43.70;24.07;;;6.70;97.30;;;;;;4916397;29;20199;-72
2020/12/06 13:20:50;;;;;;;40.50;21.47;;;6.60;97.30;;;;;;4917231;29;20970;-73
2020/12/06 13:23:16;;;;;;;48.40;22.67;;;6.60;97.30;;;;;;4916811;29;20674;-73
2020/12/06 13:25:42;;;;;;;46.90;23.17;;;6.50;97.30;;;;;;4915921;29;20206;-73
2020/12/06 13:28:07;;;;;;;48.63;24.20;;;6.40;97.30;;;;;;4916997;29;20183;-73
2020/12/06 13:30:33;;;;;;;46.93;22.90;;;6.40;97.30;;;;;;4915771;29;20180;-70
2020/12/06 13:32:58;;;;;;;49.43;24.30;;;6.30;97.30;;;;;;4915022;29;20203;-73
2020/12/06 13:35:24;;;;;;;49.73;24.83;;;6.20;97.30;;;;;;4916794;29;20208;-73
2020/12/06 13:37:50;;;;;;;45.50;23.50;;;6.10;97.30;;;;;;4916711;29;20200;-73
2020/12/06 13:40:15;;;;;;;48.57;24.87;;;6.10;97.30;;;;;;4916903;29;20173;-73
2020/12/06 13:42:41;;;;;;;50.40;23.90;;;6.10;97.30;;;;;;4915528;29;20212;-73
2020/12/06 13:45:07;;;;;;;47.60;24.27;;;6.00;97.30;;;;;;4915231;29;20187;-73
2020/12/06 13:47:32;;;;;;;51.00;23.90;;;6.00;97.30;;;;;;4915028;29;20188;-73
2020/12/06 13:49:58;;;;;;;46.47;22.57;;;6.00;97.30;;;;;;4915556;29;20583;-73
2020/12/06 13:52:24;;;;;;;46.70;23.10;;;5.80;97.30;;;;;;4916521;29;20212;-73
2020/12/06 13:54:49;;;;;;;49.10;24.00;;;5.90;97.30;;;;;;4919349;29;20238;-73
2020/12/06 13:57:15;;;;;;;51.10;24.43;;;5.90;97.30;;;;;;4919525;29;20184;-73
2020/12/06 13:59:41;;;;;;;50.87;25.30;;;5.90;97.30;;;;;;4919471;29;20192;-73
2020/12/06 14:02:06;;;;;;;47.53;24.77;;;5.80;97.30;;;;;;4919096;29;20307;-73
2020/12/06 14:04:32;;;;;;;46.27;24.77;;;5.80;97.30;;;;;;4919140;29;20192;-73
2020/12/06 14:06:58;;;;;;;54.00;24.97;;;5.80;97.30;;;;;;4919325;29;20223;-73
2020/12/06 14:09:23;;;;;;;51.10;24.43;;;5.80;97.30;;;;;;4919297;29;20195;-73
2020/12/06 14:11:56;;;;;;;52.53;24.30;;;5.80;97.30;;;;;;4918592;29;20215;-73
2020/12/06 14:14:22;;;;;;;44.03;23.27;;;5.80;97.30;;;;;;4920053;29;20176;-73
2020/12/06 14:16:51;;;;;;;46.37;24.70;;;5.80;97.30;;;;;;4919069;29;20431;-73
2020/12/06 14:19:17;;;;;;;52.00;26.77;;;5.80;97.30;;;;;;4919116;29;20416;-72
2020/12/06 14:21:43;;;;;;;48.40;24.70;;;5.80;97.30;;;;;;4918616;29;20491;-73
2020/12/06 14:24:09;;;;;;;50.27;25.50;;;5.90;97.30;;;;;;4918089;29;20200;-73
2020/12/06 14:26:35;;;;;;;47.33;25.63;;;5.90;97.30;;;;;;4917627;29;20428;-73
2020/12/06 14:29:01;;;;;;;45.77;24.40;;;5.90;97.30;;;;;;4915775;29;20500;-73
2020/12/06 14:31:26;;;;;;;50.70;24.20;;;5.80;97.30;;;;;;4917138;29;20203;-73
2020/12/06 14:33:52;;;;;;;50.30;25.10;;;5.80;97.30;;;;;;4918555;29;20189;-73
2020/12/06 14:36:22;;;;;;;54.23;23.30;;;5.80;97.30;;;;;;4918746;29;20216;-72
2020/12/06 14:38:49;;;;;;;50.60;24.60;;;5.80;97.30;;;;;;4919683;29;20215;-72
2020/12/06 14:41:16;;;;;;;55.80;26.30;;;5.80;97.30;;;;;;4918526;29;20444;-73
2020/12/06 14:43:42;;;;;;;53.33;25.50;;;5.70;97.30;;;;;;4918548;29;20424;-72
2020/12/06 14:46:08;;;;;;;58.07;25.00;;;5.70;97.30;;;;;;4919462;29;20433;-72
2020/12/06 14:48:34;;;;;;;53.73;25.00;;;5.60;97.30;;;;;;4918506;29;20429;-72
2020/12/06 14:51:00;;;;;;;51.90;25.70;;;5.60;97.30;;;;;;4919351;29;20446;-72
2020/12/06 14:53:25;;;;;;;52.80;25.77;;;5.60;97.30;;;;;;4917864;29;20546;-73
2020/12/06 14:55:51;;;;;;;53.17;25.47;;;5.60;97.30;;;;;;4917307;29;20983;-73
2020/12/06 14:58:17;;;;;;;51.83;26.57;;;5.50;97.30;;;;;;4919059;29;20185;-70
2020/12/06 15:00:42;;;;;;;57.20;28.43;;;5.50;97.30;;;;;;4919644;29;20200;-70
2020/12/06 15:03:08;;;;;;;58.17;26.90;;;5.50;97.30;;;;;;4919115;29;20248;-70
2020/12/06 15:05:34;;;;;;;55.53;27.37;;;5.50;97.30;;;;;;4917984;29;20208;-71
2020/12/06 15:07:59;;;;;;;54.83;28.33;;;5.50;97.30;;;;;;4918334;29;20275;-72
2020/12/06 15:10:25;;;;;;;60.60;27.70;;;5.50;97.30;;;;;;4918870;29;20200;-72
2020/12/06 15:12:51;;;;;;;56.93;28.30;;;5.50;97.30;;;;;;4918951;29;20211;-72
2020/12/06 15:15:16;;;;;;;57.03;26.57;;;5.40;97.30;;;;;;4917798;29;20181;-73
2020/12/06 15:17:43;;;;;;;51.90;26.13;;;5.40;97.30;;;;;;4917986;29;20189;-72
2020/12/06 15:20:09;;;;;;;60.30;28.57;;;5.40;97.30;;;;;;4918351;29;20735;-72
2020/12/06 15:22:34;;;;;;;62.63;29.40;;;5.40;97.30;;;;;;4919153;29;20468;-72
2020/12/06 15:25:00;;;;;;;58.60;27.90;;;5.40;97.30;;;;;;4918346;29;20191;-72
2020/12/06 15:27:26;;;;;;;54.67;26.13;;;5.40;97.30;;;;;;4918779;29;20184;-72
2020/12/06 15:29:52;;;;;;;59.90;27.30;;;5.40;97.30;;;;;;4917375;29;20188;-72
2020/12/06 15:32:17;;;;;;;54.43;26.27;;;5.40;97.30;;;;;;4918570;29;20209;-72
2020/12/06 15:34:44;;;;;;;50.30;26.23;;;5.40;97.30;;;;;;4918459;29;20550;-72
2020/12/06 15:37:10;;;;;;;57.83;28.10;;;5.40;97.30;;;;;;4917449;29;20184;-73
2020/12/06 15:39:36;;;;;;;57.37;29.50;;;5.40;97.30;;;;;;4918500;29;20464;-72
2020/12/06 15:42:01;;;;;;;54.47;25.50;;;5.40;97.30;;;;;;4916939;29;20344;-72
2020/12/06 15:44:27;;;;;;;50.50;26.70;;;5.40;97.30;;;;;;4918044;29;20192;-73
2020/12/06 15:46:54;;;;;;;63.40;28.23;;;5.40;97.30;;;;;;4917422;29;20204;-72
2020/12/06 15:49:20;;;;;;;57.60;26.53;;;5.40;97.30;;;;;;4916985;29;20429;-72
2020/12/06 15:51:46;;;;;;;55.20;26.17;;;5.30;97.30;;;;;;4916945;29;20818;-72
2020/12/06 15:54:12;;;;;;;52.13;26.37;;;5.30;97.30;;;;;;4916730;29;20224;-73
2020/12/06 15:56:38;;;;;;;54.77;26.90;;;5.20;97.30;;;;;;4917238;29;20180;-72
2020/12/06 15:59:03;;;;;;;55.63;26.27;;;5.20;97.30;;;;;;4924390;29;20451;-72
2020/12/06 16:01:29;;;;;;;50.20;25.10;;;5.20;97.30;;;;;;4936372;29;20223;-72
2020/12/06 16:03:55;;;;;;;55.23;27.87;;;5.20;97.30;;;;;;4936106;29;20180;-73
2020/12/06 16:06:20;;;;;;;55.17;26.40;;;5.20;97.30;;;;;;4938272;29;20649;-72
2020/12/06 16:08:47;;;;;;;56.30;26.67;;;5.20;97.30;;;;;;4936126;29;20420;-72
2020/12/06 16:11:18;;;;;;;63.97;27.47;;;5.20;97.30;;;;;;4937202;29;20226;-72
2020/12/06 16:13:45;;;;;;;54.50;26.60;;;5.20;97.30;;;;;;4935838;29;20507;-72
2020/12/06 16:16:12;;;;;;;53.17;25.67;;;5.10;97.30;;;;;;4936273;29;20416;-72
2020/12/06 16:18:38;;;;;;;52.23;26.93;;;5.00;97.30;;;;;;4935987;29;20427;-72
2020/12/06 16:21:05;;;;;;;61.97;29.47;;;5.00;97.30;;;;;;4935398;29;20435;-73
2020/12/06 16:23:31;;;;;;;59.17;28.10;;;5.00;97.30;;;;;;4937291;29;20516;-72
2020/12/06 16:26:02;;;;;;;65.17;29.20;;;5.00;97.30;;;;;;4936047;29;20416;-72
2020/12/06 16:28:28;;;;;;;58.90;28.60;;;5.00;97.30;;;;;;4932157;29;20425;-72
2020/12/06 16:30:54;;;;;;;67.93;29.20;;;5.00;97.30;;;;;;4918048;29;20954;-73
2020/12/06 16:33:20;;;;;;;64.53;29.87;;;5.00;97.30;;;;;;4916832;29;20417;-72
2020/12/06 16:35:47;;;;;;;61.83;30.43;;;5.10;97.30;;;;;;4916829;29;20432;-72
2020/12/06 16:38:13;;;;;;;61.07;30.40;;;5.10;97.30;;;;;;4918211;29;20554;-73
2020/12/06 16:40:38;;;;;;;57.10;28.23;;;5.00;97.30;;;;;;4916550;29;20444;-72
2020/12/06 16:43:04;;;;;;;72.43;30.87;;;5.00;97.30;;;;;;4916526;29;20207;-73
2020/12/06 16:45:30;;;;;;;64.93;30.47;;;5.00;97.30;;;;;;4916464;29;20192;-72
2020/12/06 16:47:56;;;;;;;57.43;29.90;;;4.90;97.30;;;;;;4918011;29;20248;-72
2020/12/06 16:50:22;;;;;;;68.43;31.77;;;4.90;97.30;;;;;;4916491;29;20204;-73
2020/12/06 16:52:48;;;;;;;68.93;32.77;;;4.90;97.30;;;;;;4916777;29;20417;-69
2020/12/06 16:55:15;;;;;;;70.90;32.43;;;4.90;97.30;;;;;;4916312;29;20437;-70
2020/12/06 16:57:41;;;;;;;80.07;35.30;;;4.90;97.30;;;;;;4916608;29;20416;-70
2020/12/06 17:00:08;;;;;;;74.13;31.90;;;4.90;97.30;;;;;;4916415;29;20420;-69
2020/12/06 17:02:35;;;;;;;70.00;30.83;;;4.90;97.30;;;;;;4916151;29;20488;-69
2020/12/06 17:05:01;;;;;;;68.17;33.03;;;4.80;97.30;;;;;;4916258;29;20432;-70
2020/12/06 17:07:27;;;;;;;71.83;33.23;;;4.90;97.30;;;;;;4916547;29;20420;-71
2020/12/06 17:09:53;;;;;;;71.43;34.17;;;4.90;97.30;;;;;;4916511;29;20199;-72
2020/12/06 17:12:18;;;;;;;93.20;42.60;;;4.80;97.30;;;;;;4916344;29;20232;-72
2020/12/06 17:14:46;;;;;;;87.43;38.10;;;4.80;97.30;;;;;;4916291;29;20646;-72
2020/12/06 17:17:13;;;;;;;81.40;37.07;;;4.80;97.30;;;;;;4917343;29;20199;-72
2020/12/06 17:19:39;;;;;;;80.40;36.47;;;4.70;97.30;;;;;;4917586;29;20954;-72
2020/12/06 17:22:09;;;;;;;95.07;40.10;;;4.70;97.30;;;;;;4915781;29;20472;-72
2020/12/06 17:24:35;;;;;;;70.10;32.70;;;4.70;97.30;;;;;;4916165;29;20416;-72
2020/12/06 17:27:02;;;;;;;84.17;36.70;;;4.60;97.30;;;;;;4915990;29;20436;-72
2020/12/06 17:29:27;;;;;;;88.97;38.40;;;4.60;97.30;;;;;;4917404;29;20433;-72
2020/12/06 17:31:54;;;;;;;88.60;36.80;;;4.60;97.30;;;;;;4916031;29;20441;-72
2020/12/06 17:34:19;;;;;;;81.70;34.60;;;4.50;97.30;;;;;;4916879;29;20650;-72
2020/12/06 17:36:45;;;;;;;71.00;30.80;;;4.50;97.30;;;;;;4916013;29;20420;-72
2020/12/06 17:39:11;;;;;;;76.03;32.70;;;4.50;97.30;;;;;;4915896;29;20181;-72
2020/12/06 17:41:36;;;;;;;65.97;30.97;;;4.50;97.30;;;;;;4915282;29;20271;-72
2020/12/06 17:44:03;;;;;;;61.63;30.77;;;4.50;97.30;;;;;;4916642;29;20698;-72
2020/12/06 17:46:32;;;;;;;74.03;34.20;;;4.50;97.30;;;;;;4915748;29;20196;-72
2020/12/06 17:48:58;;;;;;;69.23;32.97;;;4.40;97.30;;;;;;4915918;29;20421;-72
2020/12/06 17:51:24;;;;;;;57.87;29.30;;;4.40;97.30;;;;;;4916912;29;20441;-72
2020/12/06 17:53:50;;;;;;;67.73;33.60;;;4.40;97.30;;;;;;4915632;29;20271;-72
2020/12/06 17:56:16;;;;;;;89.60;39.07;;;4.40;97.30;;;;;;4916857;29;20768;-72
2020/12/06 17:58:42;;;;;;;88.50;39.70;;;4.30;97.30;;;;;;4921889;29;20938;-72
2020/12/06 18:01:11;;;;;;;87.90;39.23;;;4.30;97.30;;;;;;4934035;29;20228;-72
2020/12/06 18:03:37;;;;;;;95.20;41.97;;;4.30;97.30;;;;;;4935815;29;20908;-72
2020/12/06 18:06:03;;;;;;;74.67;34.57;;;4.30;97.30;;;;;;4934338;29;20426;-72
2020/12/06 18:08:29;;;;;;;81.37;36.33;;;4.30;97.30;;;;;;4934697;29;20412;-72
2020/12/06 18:10:54;;;;;;;72.43;30.97;;;4.30;97.30;;;;;;4935648;29;20195;-72
2020/12/06 18:13:20;;;;;;;83.00;36.13;;;4.30;97.30;;;;;;4934473;29;20339;-72
2020/12/06 18:15:46;;;;;;;71.50;34.20;;;4.20;97.30;;;;;;4934789;29;20195;-72
2020/12/06 18:18:12;;;;;;;72.70;32.87;;;4.20;97.30;;;;;;4936111;29;20242;-72
2020/12/06 18:20:38;;;;;;;69.87;31.87;;;4.20;97.30;;;;;;4935809;29;20203;-72
2020/12/06 18:23:04;;;;;;;71.30;33.00;;;4.20;97.30;;;;;;4935577;29;20628;-73
2020/12/06 18:25:30;;;;;;;73.50;32.00;;;4.20;97.30;;;;;;4935684;29;20546;-72
2020/12/06 18:27:59;;;;;;;68.40;31.80;;;4.10;97.30;;;;;;4934541;29;20538;-72
2020/12/06 18:30:25;;;;;;;64.23;30.70;;;4.10;97.30;;;;;;4934541;29;20180;-72
2020/12/06 18:32:50;;;;;;;66.60;31.17;;;4.10;97.30;;;;;;4935590;29;20495;-72
2020/12/06 18:35:17;;;;;;;64.40;30.97;;;4.10;97.30;;;;;;4934159;29;20558;-72
2020/12/06 18:37:42;;;;;;;64.20;31.20;;;4.00;97.30;;;;;;4934071;29;20180;-72